sensor_id;sensor_type;location;lat;lon;timestamp;temperature;humidity
33825;DHT22;20127;48.962;8.342;2023-05-10T00:00:17;13.70;99.90
33825;DHT22;20127;48.962;8.342;2023-05-10T00:03:19;13.70;99.90
33825;DHT22;20127;48.962;8.342;2023-05-10T00:06:22;13.70;99.90
33825;DHT22;20127;48.962;8.342;2023-05-10T00:09:24;13.70;99.90
33825;DHT22;20127;48.962;8.342;2023-05-10T00:12:25;13.70;99.90
33825;DHT22;20127;48.962;8.342;2023-05-10T00:15:27;13.70;99.90
33825;DHT22;20127;48.962;8.342;2023-05-10T00:18:30;13.70;99.90
33825;DHT22;20127;48.962;8.342;2023-05-10T00:21:33;13.70;99.90
33825;DHT22;20127;48.962;8.342;2023-05-10T00:24:35;13.70;99.90
33825;DHT22;20127;48.962;8.342;2023-05-10T00:27:37;13.70;99.90
33825;DHT22;20127;48.962;8.342;2023-05-10T00:30:38;13.70;99.90
33825;DHT22;20127;48.962;8.342;2023-05-10T00:33:40;13.70;99.90
33825;DHT22;20127;48.962;8.342;2023-05-10T00:36:43;13.70;99.90
33825;DHT22;20127;48.962;8.342;2023-05-10T00:39:45;13.70;99.90
33825;DHT22;20127;48.962;8.342;2023-05-10T00:42:46;13.60;99.90
33825;DHT22;20127;48.962;8.342;2023-05-10T00:45:48;13.60;99.90
33825;DHT22;20127;48.962;8.342;2023-05-10T00:48:50;13.60;99.90
33825;DHT22;20127;48.962;8.342;2023-05-10T00:51:54;13.70;99.90
33825;DHT22;20127;48.962;8.342;2023-05-10T00:54:56;13.70;99.90
33825;DHT22;20127;48.962;8.342;2023-05-10T00:57:58;13.70;99.90
33825;DHT22;20127;48.962;8.342;2023-05-10T01:01:00;13.70;99.90
33825;DHT22;20127;48.962;8.342;2023-05-10T01:04:02;13.60;99.90
33825;DHT22;20127;48.962;8.342;2023-05-10T01:07:05;13.70;99.90
33825;DHT22;20127;48.962;8.342;2023-05-10T01:10:08;13.70;99.90
33825;DHT22;20127;48.962;8.342;2023-05-10T01:13:11;13.70;99.90
33825;DHT22;20127;48.962;8.342;2023-05-10T01:16:13;13.70;99.90
33825;DHT22;20127;48.962;8.342;2023-05-10T01:19:20;13.70;99.90
33825;DHT22;20127;48.962;8.342;2023-05-10T01:22:50;13.70;99.90
33825;DHT22;20127;48.962;8.342;2023-05-10T01:26:07;13.70;99.90
33825;DHT22;20127;48.962;8.342;2023-05-10T01:33:01;13.70;99.90
33825;DHT22;20127;48.962;8.342;2023-05-10T01:36:15;13.60;99.90
33825;DHT22;20127;48.962;8.342;2023-05-10T01:39:21;13.60;99.90
33825;DHT22;20127;48.962;8.342;2023-05-10T01:42:25;13.60;99.90
33825;DHT22;20127;48.962;8.342;2023-05-10T01:45:31;13.60;99.90
33825;DHT22;20127;48.962;8.342;2023-05-10T01:48:37;13.60;99.90
33825;DHT22;20127;48.962;8.342;2023-05-10T01:51:54;13.60;99.90
33825;DHT22;20127;48.962;8.342;2023-05-10T01:55:02;13.60;99.90
33825;DHT22;20127;48.962;8.342;2023-05-10T01:58:08;13.60;99.90
33825;DHT22;20127;48.962;8.342;2023-05-10T02:01:11;13.70;99.90
33825;DHT22;20127;48.962;8.342;2023-05-10T02:04:16;13.70;99.90
33825;DHT22;20127;48.962;8.342;2023-05-10T02:07:19;13.70;99.90
33825;DHT22;20127;48.962;8.342;2023-05-10T02:10:21;13.70;99.90
33825;DHT22;20127;48.962;8.342;2023-05-10T02:13:24;13.70;99.90
33825;DHT22;20127;48.962;8.342;2023-05-10T02:16:27;13.70;99.90
33825;DHT22;20127;48.962;8.342;2023-05-10T02:19:32;13.70;99.90
33825;DHT22;20127;48.962;8.342;2023-05-10T02:22:36;13.70;99.90
33825;DHT22;20127;48.962;8.342;2023-05-10T02:25:39;13.70;99.90
33825;DHT22;20127;48.962;8.342;2023-05-10T02:28:42;13.80;99.90
33825;DHT22;20127;48.962;8.342;2023-05-10T02:31:44;13.80;99.90
33825;DHT22;20127;48.962;8.342;2023-05-10T02:34:48;13.80;99.90
33825;DHT22;20127;48.962;8.342;2023-05-10T02:37:52;13.80;99.90
33825;DHT22;20127;48.962;8.342;2023-05-10T02:40:55;13.80;99.90
33825;DHT22;20127;48.962;8.342;2023-05-10T02:43:59;13.80;99.90
33825;DHT22;20127;48.962;8.342;2023-05-10T02:47:03;13.70;99.90
33825;DHT22;20127;48.962;8.342;2023-05-10T02:50:07;13.80;99.90
33825;DHT22;20127;48.962;8.342;2023-05-10T02:53:11;13.80;99.90
33825;DHT22;20127;48.962;8.342;2023-05-10T02:56:28;13.80;99.90
33825;DHT22;20127;48.962;8.342;2023-05-10T02:59:31;13.70;99.90
33825;DHT22;20127;48.962;8.342;2023-05-10T03:02:32;13.70;99.90
33825;DHT22;20127;48.962;8.342;2023-05-10T03:05:36;13.70;99.90
33825;DHT22;20127;48.962;8.342;2023-05-10T03:08:37;13.60;99.90
33825;DHT22;20127;48.962;8.342;2023-05-10T03:11:47;13.50;99.90
33825;DHT22;20127;48.962;8.342;2023-05-10T03:14:57;13.50;99.90
33825;DHT22;20127;48.962;8.342;2023-05-10T03:18:06;13.40;99.90
33825;DHT22;20127;48.962;8.342;2023-05-10T03:21:11;13.40;99.90
33825;DHT22;20127;48.962;8.342;2023-05-10T03:24:16;13.30;99.90
33825;DHT22;20127;48.962;8.342;2023-05-10T03:27:20;13.30;99.90
33825;DHT22;20127;48.962;8.342;2023-05-10T03:30:24;13.20;99.90
33825;DHT22;20127;48.962;8.342;2023-05-10T03:33:26;13.20;99.90
33825;DHT22;20127;48.962;8.342;2023-05-10T03:36:29;13.20;99.90
33825;DHT22;20127;48.962;8.342;2023-05-10T03:39:31;13.20;99.90
33825;DHT22;20127;48.962;8.342;2023-05-10T03:42:32;13.20;99.90
33825;DHT22;20127;48.962;8.342;2023-05-10T03:45:34;13.20;99.90
33825;DHT22;20127;48.962;8.342;2023-05-10T03:48:36;13.20;99.90
33825;DHT22;20127;48.962;8.342;2023-05-10T03:51:39;13.20;99.90
33825;DHT22;20127;48.962;8.342;2023-05-10T03:54:40;13.20;99.90
33825;DHT22;20127;48.962;8.342;2023-05-10T03:57:42;13.20;99.90
33825;DHT22;20127;48.962;8.342;2023-05-10T04:00:44;13.20;99.90
33825;DHT22;20127;48.962;8.342;2023-05-10T04:03:45;13.30;99.90
33825;DHT22;20127;48.962;8.342;2023-05-10T04:06:48;13.30;99.90
33825;DHT22;20127;48.962;8.342;2023-05-10T04:09:50;13.30;99.90
33825;DHT22;20127;48.962;8.342;2023-05-10T04:12:52;13.30;99.90
33825;DHT22;20127;48.962;8.342;2023-05-10T04:15:54;13.30;99.90
33825;DHT22;20127;48.962;8.342;2023-05-10T04:18:55;13.30;99.90
33825;DHT22;20127;48.962;8.342;2023-05-10T04:21:59;13.40;99.90
33825;DHT22;20127;48.962;8.342;2023-05-10T04:25:00;13.40;99.90
33825;DHT22;20127;48.962;8.342;2023-05-10T04:28:02;13.50;99.90
33825;DHT22;20127;48.962;8.342;2023-05-10T04:31:05;13.50;99.90
33825;DHT22;20127;48.962;8.342;2023-05-10T04:34:06;13.50;99.90
33825;DHT22;20127;48.962;8.342;2023-05-10T04:37:09;13.50;99.90
33825;DHT22;20127;48.962;8.342;2023-05-10T04:40:12;13.50;99.90
33825;DHT22;20127;48.962;8.342;2023-05-10T04:43:13;13.60;99.90
33825;DHT22;20127;48.962;8.342;2023-05-10T04:46:15;13.60;99.90
33825;DHT22;20127;48.962;8.342;2023-05-10T04:49:17;13.60;99.90
33825;DHT22;20127;48.962;8.342;2023-05-10T04:52:20;13.60;99.90
33825;DHT22;20127;48.962;8.342;2023-05-10T04:55:22;13.70;99.90
33825;DHT22;20127;48.962;8.342;2023-05-10T04:58:24;13.70;99.90
33825;DHT22;20127;48.962;8.342;2023-05-10T05:01:25;13.70;99.90
33825;DHT22;20127;48.962;8.342;2023-05-10T05:04:27;13.80;99.90
33825;DHT22;20127;48.962;8.342;2023-05-10T05:07:30;13.80;99.90
33825;DHT22;20127;48.962;8.342;2023-05-10T05:10:32;13.80;99.90
33825;DHT22;20127;48.962;8.342;2023-05-10T05:13:34;13.90;99.90
33825;DHT22;20127;48.962;8.342;2023-05-10T05:16:35;13.90;99.90
33825;DHT22;20127;48.962;8.342;2023-05-10T05:19:37;13.90;99.90
33825;DHT22;20127;48.962;8.342;2023-05-10T05:22:40;13.90;99.90
33825;DHT22;20127;48.962;8.342;2023-05-10T05:25:42;13.90;99.90
33825;DHT22;20127;48.962;8.342;2023-05-10T05:28:43;14.00;99.90
33825;DHT22;20127;48.962;8.342;2023-05-10T05:31:45;14.00;99.90
33825;DHT22;20127;48.962;8.342;2023-05-10T05:34:47;14.10;99.90
33825;DHT22;20127;48.962;8.342;2023-05-10T05:37:50;14.10;99.90
33825;DHT22;20127;48.962;8.342;2023-05-10T05:40:52;14.20;99.90
33825;DHT22;20127;48.962;8.342;2023-05-10T05:43:53;14.20;99.90
33825;DHT22;20127;48.962;8.342;2023-05-10T05:46:55;14.20;99.90
33825;DHT22;20127;48.962;8.342;2023-05-10T05:49:57;14.30;99.90
33825;DHT22;20127;48.962;8.342;2023-05-10T05:53:00;14.30;99.90
33825;DHT22;20127;48.962;8.342;2023-05-10T05:56:02;14.40;99.90
33825;DHT22;20127;48.962;8.342;2023-05-10T05:59:04;14.50;99.90
33825;DHT22;20127;48.962;8.342;2023-05-10T06:02:05;14.50;99.90
33825;DHT22;20127;48.962;8.342;2023-05-10T06:05:08;14.60;99.90
33825;DHT22;20127;48.962;8.342;2023-05-10T06:08:11;14.70;99.90
33825;DHT22;20127;48.962;8.342;2023-05-10T06:11:13;14.80;99.90
33825;DHT22;20127;48.962;8.342;2023-05-10T06:14:14;14.90;99.90
33825;DHT22;20127;48.962;8.342;2023-05-10T06:17:16;14.90;99.90
33825;DHT22;20127;48.962;8.342;2023-05-10T06:20:18;15.00;99.90
33825;DHT22;20127;48.962;8.342;2023-05-10T06:23:21;15.00;99.90
33825;DHT22;20127;48.962;8.342;2023-05-10T06:26:23;15.00;99.90
33825;DHT22;20127;48.962;8.342;2023-05-10T06:29:25;14.90;99.90
33825;DHT22;20127;48.962;8.342;2023-05-10T06:32:26;14.90;99.90
33825;DHT22;20127;48.962;8.342;2023-05-10T06:35:28;14.90;99.90
33825;DHT22;20127;48.962;8.342;2023-05-10T06:38:33;14.90;99.90
33825;DHT22;20127;48.962;8.342;2023-05-10T06:41:34;15.00;99.90
33825;DHT22;20127;48.962;8.342;2023-05-10T06:44:36;15.00;99.90
33825;DHT22;20127;48.962;8.342;2023-05-10T06:47:38;15.10;99.90
33825;DHT22;20127;48.962;8.342;2023-05-10T06:50:40;15.10;99.90
33825;DHT22;20127;48.962;8.342;2023-05-10T06:53:43;15.10;99.90
33825;DHT22;20127;48.962;8.342;2023-05-10T06:56:44;15.20;99.90
33825;DHT22;20127;48.962;8.342;2023-05-10T06:59:46;15.20;99.90
33825;DHT22;20127;48.962;8.342;2023-05-10T07:02:48;15.40;99.90
33825;DHT22;20127;48.962;8.342;2023-05-10T07:05:49;15.60;99.90
33825;DHT22;20127;48.962;8.342;2023-05-10T07:08:52;15.90;99.90
33825;DHT22;20127;48.962;8.342;2023-05-10T07:11:54;16.10;99.90
33825;DHT22;20127;48.962;8.342;2023-05-10T07:14:57;16.20;99.90
33825;DHT22;20127;48.962;8.342;2023-05-10T07:17:59;16.10;99.90
33825;DHT22;20127;48.962;8.342;2023-05-10T07:21:00;16.00;99.90
33825;DHT22;20127;48.962;8.342;2023-05-10T07:24:05;16.00;99.90
33825;DHT22;20127;48.962;8.342;2023-05-10T07:27:06;15.90;99.90
33825;DHT22;20127;48.962;8.342;2023-05-10T07:30:09;15.80;99.90
33825;DHT22;20127;48.962;8.342;2023-05-10T07:33:13;15.80;99.90
33825;DHT22;20127;48.962;8.342;2023-05-10T07:36:15;15.90;99.90
33825;DHT22;20127;48.962;8.342;2023-05-10T07:39:18;15.90;99.90
33825;DHT22;20127;48.962;8.342;2023-05-10T07:42:20;15.90;99.90
33825;DHT22;20127;48.962;8.342;2023-05-10T07:45:22;16.10;99.90
33825;DHT22;20127;48.962;8.342;2023-05-10T07:48:24;16.40;99.90
33825;DHT22;20127;48.962;8.342;2023-05-10T07:51:26;16.80;99.90
33825;DHT22;20127;48.962;8.342;2023-05-10T07:54:29;16.70;99.90
33825;DHT22;20127;48.962;8.342;2023-05-10T07:57:31;16.60;99.90
33825;DHT22;20127;48.962;8.342;2023-05-10T08:00:33;16.70;99.90
33825;DHT22;20127;48.962;8.342;2023-05-10T08:03:35;16.70;99.90
33825;DHT22;20127;48.962;8.342;2023-05-10T08:06:36;16.60;99.90
33825;DHT22;20127;48.962;8.342;2023-05-10T08:09:39;16.50;99.90
33825;DHT22;20127;48.962;8.342;2023-05-10T08:12:41;16.40;99.90
33825;DHT22;20127;48.962;8.342;2023-05-10T08:15:43;16.70;99.90
33825;DHT22;20127;48.962;8.342;2023-05-10T08:18:45;17.30;99.90
33825;DHT22;20127;48.962;8.342;2023-05-10T08:21:48;18.00;99.90
33825;DHT22;20127;48.962;8.342;2023-05-10T08:24:52;18.60;99.90
33825;DHT22;20127;48.962;8.342;2023-05-10T08:27:53;19.20;99.90
33825;DHT22;20127;48.962;8.342;2023-05-10T08:30:55;19.70;99.90
33825;DHT22;20127;48.962;8.342;2023-05-10T08:33:57;20.00;99.90
33825;DHT22;20127;48.962;8.342;2023-05-10T08:36:59;20.30;99.90
33825;DHT22;20127;48.962;8.342;2023-05-10T08:40:02;20.40;99.90
33825;DHT22;20127;48.962;8.342;2023-05-10T08:43:06;20.50;99.90
33825;DHT22;20127;48.962;8.342;2023-05-10T08:46:09;20.50;99.90
33825;DHT22;20127;48.962;8.342;2023-05-10T08:49:13;20.90;99.90
33825;DHT22;20127;48.962;8.342;2023-05-10T08:52:18;20.90;99.90
33825;DHT22;20127;48.962;8.342;2023-05-10T08:55:21;20.70;99.90
33825;DHT22;20127;48.962;8.342;2023-05-10T08:58:25;20.60;99.90
33825;DHT22;20127;48.962;8.342;2023-05-10T09:01:27;20.60;99.90
33825;DHT22;20127;48.962;8.342;2023-05-10T09:04:29;20.40;99.90
33825;DHT22;20127;48.962;8.342;2023-05-10T09:07:31;20.00;99.90
33825;DHT22;20127;48.962;8.342;2023-05-10T09:10:34;19.60;99.90
33825;DHT22;20127;48.962;8.342;2023-05-10T09:13:37;19.20;99.90
33825;DHT22;20127;48.962;8.342;2023-05-10T09:16:39;18.90;99.90
33825;DHT22;20127;48.962;8.342;2023-05-10T09:19:41;18.40;99.90
33825;DHT22;20127;48.962;8.342;2023-05-10T09:22:43;17.80;99.90
33825;DHT22;20127;48.962;8.342;2023-05-10T09:25:46;17.40;99.90
33825;DHT22;20127;48.962;8.342;2023-05-10T09:28:52;17.20;99.90
33825;DHT22;20127;48.962;8.342;2023-05-10T09:31:54;17.00;99.90
33825;DHT22;20127;48.962;8.342;2023-05-10T09:34:55;16.80;99.90
33825;DHT22;20127;48.962;8.342;2023-05-10T09:37:59;16.70;99.90
33825;DHT22;20127;48.962;8.342;2023-05-10T09:41:02;16.80;99.90
33825;DHT22;20127;48.962;8.342;2023-05-10T09:44:04;16.70;99.90
33825;DHT22;20127;48.962;8.342;2023-05-10T09:47:06;16.80;99.90
33825;DHT22;20127;48.962;8.342;2023-05-10T09:50:08;17.20;99.90
33825;DHT22;20127;48.962;8.342;2023-05-10T09:53:14;17.80;99.90
33825;DHT22;20127;48.962;8.342;2023-05-10T09:56:35;18.40;99.90
33825;DHT22;20127;48.962;8.342;2023-05-10T09:59:42;19.00;99.90
33825;DHT22;20127;48.962;8.342;2023-05-10T10:02:46;19.30;99.90
33825;DHT22;20127;48.962;8.342;2023-05-10T10:05:48;19.30;99.90
33825;DHT22;20127;48.962;8.342;2023-05-10T10:08:50;19.30;99.90
33825;DHT22;20127;48.962;8.342;2023-05-10T10:11:54;19.10;99.90
33825;DHT22;20127;48.962;8.342;2023-05-10T10:14:57;19.00;99.90
33825;DHT22;20127;48.962;8.342;2023-05-10T10:18:01;19.00;99.90
33825;DHT22;20127;48.962;8.342;2023-05-10T10:21:05;19.10;99.90
33825;DHT22;20127;48.962;8.342;2023-05-10T10:24:07;19.40;99.90
33825;DHT22;20127;48.962;8.342;2023-05-10T10:27:15;19.40;99.90
33825;DHT22;20127;48.962;8.342;2023-05-10T10:30:25;19.50;99.90
33825;DHT22;20127;48.962;8.342;2023-05-10T10:33:36;19.60;99.90
33825;DHT22;20127;48.962;8.342;2023-05-10T10:36:40;19.80;99.90
33825;DHT22;20127;48.962;8.342;2023-05-10T10:39:43;19.80;99.90
33825;DHT22;20127;48.962;8.342;2023-05-10T10:42:47;20.00;99.90
33825;DHT22;20127;48.962;8.342;2023-05-10T10:46:11;20.20;99.90
33825;DHT22;20127;48.962;8.342;2023-05-10T10:49:14;19.80;99.90
33825;DHT22;20127;48.962;8.342;2023-05-10T10:52:25;19.20;99.90
33825;DHT22;20127;48.962;8.342;2023-05-10T10:55:28;19.00;99.90
33825;DHT22;20127;48.962;8.342;2023-05-10T10:58:33;18.90;99.90
33825;DHT22;20127;48.962;8.342;2023-05-10T11:01:34;18.80;99.90
33825;DHT22;20127;48.962;8.342;2023-05-10T11:04:43;19.00;99.90
33825;DHT22;20127;48.962;8.342;2023-05-10T11:07:53;18.90;99.90
33825;DHT22;20127;48.962;8.342;2023-05-10T11:11:06;18.90;99.90
33825;DHT22;20127;48.962;8.342;2023-05-10T11:14:12;18.80;99.90
33825;DHT22;20127;48.962;8.342;2023-05-10T11:17:23;18.60;99.90
33825;DHT22;20127;48.962;8.342;2023-05-10T11:20:27;18.40;99.90
33825;DHT22;20127;48.962;8.342;2023-05-10T11:23:49;18.40;99.90
33825;DHT22;20127;48.962;8.342;2023-05-10T11:26:51;18.40;99.90
33825;DHT22;20127;48.962;8.342;2023-05-10T11:29:54;18.20;99.90
33825;DHT22;20127;48.962;8.342;2023-05-10T11:32:56;18.00;99.90
33825;DHT22;20127;48.962;8.342;2023-05-10T11:35:57;18.00;99.90
33825;DHT22;20127;48.962;8.342;2023-05-10T11:38:59;18.00;99.90
33825;DHT22;20127;48.962;8.342;2023-05-10T11:42:01;18.10;99.90
33825;DHT22;20127;48.962;8.342;2023-05-10T11:45:05;18.10;99.90
33825;DHT22;20127;48.962;8.342;2023-05-10T11:48:07;18.10;99.90
33825;DHT22;20127;48.962;8.342;2023-05-10T11:51:10;18.10;99.90
33825;DHT22;20127;48.962;8.342;2023-05-10T11:54:12;18.20;99.90
33825;DHT22;20127;48.962;8.342;2023-05-10T11:57:13;18.40;99.90
33825;DHT22;20127;48.962;8.342;2023-05-10T12:03:27;19.00;99.90
33825;DHT22;20127;48.962;8.342;2023-05-10T12:06:30;19.30;99.90
33825;DHT22;20127;48.962;8.342;2023-05-10T12:09:32;19.60;99.90
33825;DHT22;20127;48.962;8.342;2023-05-10T12:12:38;19.80;99.90
33825;DHT22;20127;48.962;8.342;2023-05-10T12:15:40;20.10;99.90
33825;DHT22;20127;48.962;8.342;2023-05-10T12:18:43;20.00;99.90
33825;DHT22;20127;48.962;8.342;2023-05-10T12:21:45;20.30;99.90
33825;DHT22;20127;48.962;8.342;2023-05-10T12:24:47;20.40;99.90
33825;DHT22;20127;48.962;8.342;2023-05-10T12:27:51;20.50;99.90
33825;DHT22;20127;48.962;8.342;2023-05-10T12:30:53;20.70;99.90
33825;DHT22;20127;48.962;8.342;2023-05-10T12:33:56;20.70;99.90
33825;DHT22;20127;48.962;8.342;2023-05-10T12:36:58;20.70;99.90
33825;DHT22;20127;48.962;8.342;2023-05-10T12:40:00;20.90;99.90
33825;DHT22;20127;48.962;8.342;2023-05-10T12:43:02;20.90;99.90
33825;DHT22;20127;48.962;8.342;2023-05-10T12:46:07;20.70;99.90
33825;DHT22;20127;48.962;8.342;2023-05-10T12:49:10;20.60;99.90
33825;DHT22;20127;48.962;8.342;2023-05-10T12:52:12;20.80;99.90
33825;DHT22;20127;48.962;8.342;2023-05-10T12:55:14;20.90;99.90
33825;DHT22;20127;48.962;8.342;2023-05-10T12:58:15;21.10;99.90
33825;DHT22;20127;48.962;8.342;2023-05-10T13:01:17;21.10;99.60
33825;DHT22;20127;48.962;8.342;2023-05-10T13:04:20;21.00;98.80
33825;DHT22;20127;48.962;8.342;2023-05-10T13:07:22;20.90;97.90
33825;DHT22;20127;48.962;8.342;2023-05-10T13:10:23;20.80;97.60
33825;DHT22;20127;48.962;8.342;2023-05-10T13:13:25;20.80;97.20
33825;DHT22;20127;48.962;8.342;2023-05-10T13:16:27;20.70;97.40
33825;DHT22;20127;48.962;8.342;2023-05-10T13:19:30;20.80;97.60
33825;DHT22;20127;48.962;8.342;2023-05-10T13:22:32;20.80;96.60
33825;DHT22;20127;48.962;8.342;2023-05-10T13:25:33;20.90;96.60
33825;DHT22;20127;48.962;8.342;2023-05-10T13:28:35;20.90;96.40
33825;DHT22;20127;48.962;8.342;2023-05-10T13:31:39;20.90;96.10
33825;DHT22;20127;48.962;8.342;2023-05-10T13:34:42;21.20;95.70
33825;DHT22;20127;48.962;8.342;2023-05-10T13:37:43;21.60;95.00
33825;DHT22;20127;48.962;8.342;2023-05-10T13:40:45;21.60;93.90
33825;DHT22;20127;48.962;8.342;2023-05-10T13:43:47;21.50;93.10
33825;DHT22;20127;48.962;8.342;2023-05-10T13:46:49;21.40;92.60
33825;DHT22;20127;48.962;8.342;2023-05-10T13:49:55;21.30;92.40
33825;DHT22;20127;48.962;8.342;2023-05-10T13:52:58;21.30;92.00
33825;DHT22;20127;48.962;8.342;2023-05-10T13:55:59;21.20;91.50
33825;DHT22;20127;48.962;8.342;2023-05-10T13:59:02;21.00;91.10
33825;DHT22;20127;48.962;8.342;2023-05-10T14:02:04;20.30;91.20
33825;DHT22;20127;48.962;8.342;2023-05-10T14:05:07;19.80;91.50
33825;DHT22;20127;48.962;8.342;2023-05-10T14:08:09;19.50;92.10
33825;DHT22;20127;48.962;8.342;2023-05-10T14:11:11;19.30;92.30
33825;DHT22;20127;48.962;8.342;2023-05-10T14:14:13;19.10;92.80
33825;DHT22;20127;48.962;8.342;2023-05-10T14:17:14;19.00;93.00
33825;DHT22;20127;48.962;8.342;2023-05-10T14:20:18;18.90;93.30
33825;DHT22;20127;48.962;8.342;2023-05-10T14:23:19;18.80;93.30
33825;DHT22;20127;48.962;8.342;2023-05-10T14:26:24;18.90;93.50
33825;DHT22;20127;48.962;8.342;2023-05-10T14:29:26;19.10;94.00
33825;DHT22;20127;48.962;8.342;2023-05-10T14:32:28;19.90;93.10
33825;DHT22;20127;48.962;8.342;2023-05-10T14:35:31;20.30;91.90
33825;DHT22;20127;48.962;8.342;2023-05-10T14:38:33;20.40;91.30
33825;DHT22;20127;48.962;8.342;2023-05-10T14:41:34;20.60;91.30
33825;DHT22;20127;48.962;8.342;2023-05-10T14:44:36;20.70;91.30
33825;DHT22;20127;48.962;8.342;2023-05-10T14:47:38;21.10;90.80
33825;DHT22;20127;48.962;8.342;2023-05-10T14:50:41;21.50;90.20
33825;DHT22;20127;48.962;8.342;2023-05-10T14:53:43;21.60;87.50
33825;DHT22;20127;48.962;8.342;2023-05-10T14:56:44;21.50;87.70
33825;DHT22;20127;48.962;8.342;2023-05-10T14:59:46;21.30;87.40
33825;DHT22;20127;48.962;8.342;2023-05-10T15:02:48;21.40;86.90
33825;DHT22;20127;48.962;8.342;2023-05-10T15:05:51;21.00;86.70
33825;DHT22;20127;48.962;8.342;2023-05-10T15:08:53;20.80;87.70
33825;DHT22;20127;48.962;8.342;2023-05-10T15:11:55;20.70;88.10
33825;DHT22;20127;48.962;8.342;2023-05-10T15:14:56;20.50;88.50
33825;DHT22;20127;48.962;8.342;2023-05-10T15:17:58;20.30;88.70
33825;DHT22;20127;48.962;8.342;2023-05-10T15:21:01;19.90;88.80
33825;DHT22;20127;48.962;8.342;2023-05-10T15:24:03;19.60;90.10
33825;DHT22;20127;48.962;8.342;2023-05-10T15:27:05;19.50;90.50
33825;DHT22;20127;48.962;8.342;2023-05-10T15:30:08;19.40;90.60
33825;DHT22;20127;48.962;8.342;2023-05-10T15:33:10;19.40;90.90
33825;DHT22;20127;48.962;8.342;2023-05-10T15:36:13;19.30;91.20
33825;DHT22;20127;48.962;8.342;2023-05-10T15:39:14;19.20;91.10
33825;DHT22;20127;48.962;8.342;2023-05-10T15:42:16;19.00;91.40
33825;DHT22;20127;48.962;8.342;2023-05-10T15:45:18;18.80;91.70
33825;DHT22;20127;48.962;8.342;2023-05-10T15:48:20;18.80;91.60
33825;DHT22;20127;48.962;8.342;2023-05-10T15:51:23;18.60;91.20
33825;DHT22;20127;48.962;8.342;2023-05-10T15:54:24;18.60;91.20
33825;DHT22;20127;48.962;8.342;2023-05-10T15:57:26;18.80;91.40
33825;DHT22;20127;48.962;8.342;2023-05-10T16:00:28;19.00;91.30
33825;DHT22;20127;48.962;8.342;2023-05-10T16:03:29;19.00;91.60
33825;DHT22;20127;48.962;8.342;2023-05-10T16:06:33;19.10;91.90
33825;DHT22;20127;48.962;8.342;2023-05-10T16:09:35;19.10;92.30
33825;DHT22;20127;48.962;8.342;2023-05-10T16:12:37;19.00;92.60
33825;DHT22;20127;48.962;8.342;2023-05-10T16:15:39;18.80;93.00
33825;DHT22;20127;48.962;8.342;2023-05-10T16:18:41;18.70;93.50
33825;DHT22;20127;48.962;8.342;2023-05-10T16:21:44;18.60;93.80
33825;DHT22;20127;48.962;8.342;2023-05-10T16:24:46;18.40;93.80
33825;DHT22;20127;48.962;8.342;2023-05-10T16:27:47;18.30;94.10
33825;DHT22;20127;48.962;8.342;2023-05-10T16:30:50;18.30;94.50
33825;DHT22;20127;48.962;8.342;2023-05-10T16:33:52;18.30;94.40
33825;DHT22;20127;48.962;8.342;2023-05-10T16:36:55;18.50;93.90
33825;DHT22;20127;48.962;8.342;2023-05-10T16:39:56;18.40;93.10
33825;DHT22;20127;48.962;8.342;2023-05-10T16:42:58;18.30;92.60
33825;DHT22;20127;48.962;8.342;2023-05-10T16:46:00;18.00;91.80
33825;DHT22;20127;48.962;8.342;2023-05-10T16:49:01;17.90;91.60
33825;DHT22;20127;48.962;8.342;2023-05-10T16:52:04;17.70;91.70
33825;DHT22;20127;48.962;8.342;2023-05-10T16:55:07;17.60;91.80
33825;DHT22;20127;48.962;8.342;2023-05-10T16:58:09;17.50;91.80
33825;DHT22;20127;48.962;8.342;2023-05-10T17:01:10;17.40;92.20
33825;DHT22;20127;48.962;8.342;2023-05-10T17:04:12;17.40;92.30
33825;DHT22;20127;48.962;8.342;2023-05-10T17:07:15;17.30;92.40
33825;DHT22;20127;48.962;8.342;2023-05-10T17:10:18;17.20;92.70
33825;DHT22;20127;48.962;8.342;2023-05-10T17:13:20;17.10;93.00
33825;DHT22;20127;48.962;8.342;2023-05-10T17:16:21;17.10;93.20
33825;DHT22;20127;48.962;8.342;2023-05-10T17:19:23;16.90;93.40
33825;DHT22;20127;48.962;8.342;2023-05-10T17:22:26;17.00;93.80
33825;DHT22;20127;48.962;8.342;2023-05-10T17:25:28;16.90;94.00
33825;DHT22;20127;48.962;8.342;2023-05-10T17:28:30;16.80;94.20
33825;DHT22;20127;48.962;8.342;2023-05-10T17:31:31;16.80;94.50
33825;DHT22;20127;48.962;8.342;2023-05-10T17:34:33;16.70;94.80
33825;DHT22;20127;48.962;8.342;2023-05-10T17:37:36;16.70;95.20
33825;DHT22;20127;48.962;8.342;2023-05-10T17:40:39;16.80;95.50
33825;DHT22;20127;48.962;8.342;2023-05-10T17:43:41;16.70;95.50
33825;DHT22;20127;48.962;8.342;2023-05-10T17:46:43;16.80;95.70
33825;DHT22;20127;48.962;8.342;2023-05-10T17:49:44;16.80;95.80
33825;DHT22;20127;48.962;8.342;2023-05-10T17:52:47;16.70;95.70
33825;DHT22;20127;48.962;8.342;2023-05-10T17:55:50;16.60;95.90
33825;DHT22;20127;48.962;8.342;2023-05-10T17:58:51;16.60;96.20
33825;DHT22;20127;48.962;8.342;2023-05-10T18:01:53;16.50;96.40
33825;DHT22;20127;48.962;8.342;2023-05-10T18:04:55;16.40;96.80
33825;DHT22;20127;48.962;8.342;2023-05-10T18:07:58;16.20;97.10
33825;DHT22;20127;48.962;8.342;2023-05-10T18:11:00;16.20;97.40
33825;DHT22;20127;48.962;8.342;2023-05-10T18:14:02;16.10;97.50
33825;DHT22;20127;48.962;8.342;2023-05-10T18:17:05;16.00;98.00
33825;DHT22;20127;48.962;8.342;2023-05-10T18:20:08;16.00;98.10
33825;DHT22;20127;48.962;8.342;2023-05-10T18:23:11;16.00;98.30
33825;DHT22;20127;48.962;8.342;2023-05-10T18:26:13;15.80;98.40
33825;DHT22;20127;48.962;8.342;2023-05-10T18:29:16;15.70;98.70
33825;DHT22;20127;48.962;8.342;2023-05-10T18:32:18;15.70;99.00
33825;DHT22;20127;48.962;8.342;2023-05-10T18:35:19;15.60;99.20
33825;DHT22;20127;48.962;8.342;2023-05-10T18:38:23;15.50;99.50
33825;DHT22;20127;48.962;8.342;2023-05-10T18:41:24;15.50;99.80
33825;DHT22;20127;48.962;8.342;2023-05-10T18:44:27;15.30;99.90
33825;DHT22;20127;48.962;8.342;2023-05-10T18:47:28;15.30;99.90
33825;DHT22;20127;48.962;8.342;2023-05-10T18:50:30;15.30;99.90
33825;DHT22;20127;48.962;8.342;2023-05-10T18:53:33;15.20;99.90
33825;DHT22;20127;48.962;8.342;2023-05-10T18:56:36;15.20;99.90
33825;DHT22;20127;48.962;8.342;2023-05-10T18:59:39;15.00;99.90
33825;DHT22;20127;48.962;8.342;2023-05-10T19:02:41;15.00;99.90
33825;DHT22;20127;48.962;8.342;2023-05-10T19:05:42;14.90;99.90
33825;DHT22;20127;48.962;8.342;2023-05-10T19:08:48;14.80;99.90
33825;DHT22;20127;48.962;8.342;2023-05-10T19:11:50;14.70;99.90
33825;DHT22;20127;48.962;8.342;2023-05-10T19:14:52;14.60;99.90
33825;DHT22;20127;48.962;8.342;2023-05-10T19:17:54;14.60;99.90
33825;DHT22;20127;48.962;8.342;2023-05-10T19:20:55;14.50;99.90